Aérodrome :
LOGIN :

S'inscrire | Disclaimer

   EN    FR    IT 

 










Légende :    VFR   VFR Marginal   IFR   IFR Intensif   IFR Très Intensif
Visi : 
Plafond : 
>= 8 km
>= 3000ft
5 à 8 km
1000 à 3000 ft
1500m à 5 km
500 à 1000 ft
800 à 1500m
200 à 500 ft
< 800m
< 200 ft
Symboles :   Orages  Brouillard  Fortes neiges  Fortes précipitations  Vent > 20 kt
SIGMETs :   Divers  Orages  Givrage  Turbulence  Onde Orograph.  Cendres Volcan.






- Altitude de l'aérodrome : 526 ft
- Code IATA : LTN


EGGW - London Luton

DERNIER METAR :
  • 281550Z AUTO 24013KT 9999 NCD 04/01 Q0996

METARs EXPIRÉS :
  • 281520Z AUTO 23014KT 9999 NCD 04/01 Q0996
  • 281450Z AUTO 24017KT 9999 SCT021 04/01 Q0996
  • 281420Z AUTO 24016KT 9999 BKN022 BKN027 05/02 Q0996
  • 281350Z AUTO 24015KT 9999 BKN023 BKN029 05/02 Q0995
  • 281320Z AUTO 24017KT 9999 SCT025 05/02 Q0995

TAF AMD TAF EGGW
Valide du 28 à 13h jusqu'au 29 à 12h UTC


281305Z 2813/2912 26015KT 9999 SCT020
TEMPO 2813/2816 27018G28KT
ATIS : +44 1582 395 204



MET'MAP, la Météo Aéronautique d'un coup d'oeil ! - Copyright ORBIFLY Décembre 2007 - Disclaimer

ORBIFLY MET'MAP TEAM :

Programmation & Développement : Alexandra Zaïnal
Sur une idée originale de : Baudouin d'Aumeries
Assistance à la programmation : Marc-Olivier Méhu
Soutien technique & logistique : Manuel Goepfert

Contact : metmap@orbifly.com




SOURCES & CREDITS :

   NOAA